Time;durP1;ratioP1;P1;durP2;ratioP2;P2;SDS_P1;SDS_P2;PMS_P1;PMS_P2;Temp;Humidity;BMP_temperature;BMP_pressure;BME280_temperature;BME280_humidity;BME280_pressure;Samples;Min_cycle;Max_cycle;Signal;HPM_P1;HPM_P2
2024/03/22 00:03:09;;;;;;;72.22;48.58;;;;;;;;;;10136877;28;20082;-76
2024/03/22 00:08:01;;;;;;;66.53;49.83;;;;;;;;;;10132966;28;20052;-77
2024/03/22 00:12:54;;;;;;;65.45;50.05;;;;;;;;;;10131605;28;20487;-77
2024/03/22 00:17:46;;;;;;;78.68;51.65;;;;;;;;;;10137211;28;20465;-77
2024/03/22 00:22:39;;;;;;;76.75;51.45;;;;;;;;;;10141362;28;20036;-77
2024/03/22 00:27:31;;;;;;;76.63;52.25;;;;;;;;;;10128032;28;20056;-78
2024/03/22 00:32:23;;;;;;;75.03;49.78;;;;;;;;;;10138593;28;20051;-77
2024/03/22 00:37:15;;;;;;;74.78;50.60;;;;;;;;;;10136898;28;20072;-76
2024/03/22 00:42:08;;;;;;;76.75;47.20;;;;;;;;;;10131709;28;20060;-78
2024/03/22 00:47:02;;;;;;;74.85;47.30;;;;;;;;;;10132409;28;20106;-76
2024/03/22 00:51:56;;;;;;;78.72;52.72;;;;;;;;;;10131071;28;20408;-77
2024/03/22 00:56:48;;;;;;;72.88;49.20;;;;;;;;;;10131951;28;20400;-78
2024/03/22 01:01:40;;;;;;;82.63;52.03;;;;;;;;;;10130665;28;20664;-77
2024/03/22 01:06:33;;;;;;;67.43;45.08;;;;;;;;;;10130346;28;20052;-77
2024/03/22 01:11:25;;;;;;;77.90;45.83;;;;;;;;;;10130756;28;20041;-77
2024/03/22 01:16:18;;;;;;;61.78;42.45;;;;;;;;;;10131323;28;20048;-78
2024/03/22 01:21:10;;;;;;;61.25;41.45;;;;;;;;;;10131387;28;20059;-78
2024/03/22 01:26:03;;;;;;;65.50;44.03;;;;;;;;;;10132013;28;20044;-80
2024/03/22 01:30:54;;;;;;;60.10;41.95;;;;;;;;;;10130606;28;20075;-78
2024/03/22 01:35:47;;;;;;;69.35;47.15;;;;;;;;;;10131239;28;20049;-78
2024/03/22 01:40:39;;;;;;;75.72;47.65;;;;;;;;;;10129507;28;20185;-78
2024/03/22 01:45:33;;;;;;;67.43;45.35;;;;;;;;;;10129848;28;20056;-79
2024/03/22 01:50:26;;;;;;;62.63;42.72;;;;;;;;;;10129131;28;20066;-78
2024/03/22 01:55:19;;;;;;;71.47;44.53;;;;;;;;;;10129972;28;20041;-77
2024/03/22 02:00:13;;;;;;;57.85;42.30;;;;;;;;;;10112755;28;20052;-78
2024/03/22 02:05:15;;;;;;;73.10;48.08;;;;;;;;;;10130132;28;20213;-78
2024/03/22 02:10:10;;;;;;;69.70;45.67;;;;;;;;;;10128301;28;20056;-79
2024/03/22 02:15:03;;;;;;;67.72;47.95;;;;;;;;;;10127885;28;20385;-79
2024/03/22 02:19:56;;;;;;;73.40;48.05;;;;;;;;;;10127489;28;20071;-77
2024/03/22 02:24:48;;;;;;;83.63;55.90;;;;;;;;;;10127997;28;20044;-78
2024/03/22 02:29:40;;;;;;;84.90;52.22;;;;;;;;;;10127152;28;20557;-78
2024/03/22 02:34:33;;;;;;;78.55;52.80;;;;;;;;;;10127488;28;20099;-78
2024/03/22 02:39:26;;;;;;;75.78;52.72;;;;;;;;;;10127911;28;20445;-78
2024/03/22 02:44:18;;;;;;;73.07;50.13;;;;;;;;;;10126937;28;20098;-78
2024/03/22 02:49:11;;;;;;;84.35;56.55;;;;;;;;;;10127322;28;20450;-78
2024/03/22 02:54:04;;;;;;;94.22;60.10;;;;;;;;;;10127042;28;20036;-77
2024/03/22 02:58:56;;;;;;;101.80;62.05;;;;;;;;;;10127311;28;20606;-78
2024/03/22 03:03:49;;;;;;;116.75;65.35;;;;;;;;;;10127572;28;20040;-78
2024/03/22 03:08:41;;;;;;;99.60;59.65;;;;;;;;;;10128977;28;20048;-79
2024/03/22 03:13:33;;;;;;;102.07;62.35;;;;;;;;;;10128308;28;20053;-79
2024/03/22 03:18:26;;;;;;;113.47;65.25;;;;;;;;;;10127060;28;20040;-78
2024/03/22 03:23:18;;;;;;;112.78;70.70;;;;;;;;;;10127388;28;20048;-79
2024/03/22 03:28:12;;;;;;;123.45;75.85;;;;;;;;;;10129453;28;20037;-78
2024/03/22 03:33:05;;;;;;;124.85;82.35;;;;;;;;;;10134334;28;20048;-77
2024/03/22 03:37:59;;;;;;;122.07;77.55;;;;;;;;;;10116743;28;20037;-79
2024/03/22 03:42:52;;;;;;;113.53;72.97;;;;;;;;;;10134956;28;20052;-79
2024/03/22 03:47:44;;;;;;;120.07;72.00;;;;;;;;;;10112966;28;20061;-79
2024/03/22 03:52:36;;;;;;;103.15;68.50;;;;;;;;;;10110609;28;20056;-78
2024/03/22 03:57:29;;;;;;;99.57;66.95;;;;;;;;;;10123698;28;20041;-78
2024/03/22 04:02:21;;;;;;;92.10;60.92;;;;;;;;;;10114181;28;20502;-78
2024/03/22 04:07:14;;;;;;;88.15;58.50;;;;;;;;;;10110363;28;20057;-78
2024/03/22 04:12:07;;;;;;;87.50;58.67;;;;;;;;;;10111141;28;20049;-78
2024/03/22 04:16:59;;;;;;;85.57;55.92;;;;;;;;;;10110808;28;20517;-79
2024/03/22 04:21:52;;;;;;;81.38;54.53;;;;;;;;;;10110582;28;20115;-77
2024/03/22 04:26:44;;;;;;;87.18;55.47;;;;;;;;;;10111742;28;20045;-78
2024/03/22 04:31:37;;;;;;;85.72;57.33;;;;;;;;;;10112266;28;20049;-78
2024/03/22 04:36:29;;;;;;;81.82;53.00;;;;;;;;;;10110927;28;20048;-78
2024/03/22 04:41:21;;;;;;;78.75;52.50;;;;;;;;;;10109210;28;20053;-77
2024/03/22 04:46:14;;;;;;;74.38;53.10;;;;;;;;;;10107776;28;20067;-77
2024/03/22 04:51:06;;;;;;;70.18;46.95;;;;;;;;;;10109913;28;20450;-78
2024/03/22 04:55:59;;;;;;;75.70;49.58;;;;;;;;;;10107690;28;20045;-78
2024/03/22 05:00:57;;;;;;;76.60;51.78;;;;;;;;;;10107829;28;20037;-78
2024/03/22 05:05:50;;;;;;;70.43;48.67;;;;;;;;;;10108177;28;20049;-78
2024/03/22 05:10:43;;;;;;;67.63;47.13;;;;;;;;;;10114097;28;20049;-78
2024/03/22 05:15:35;;;;;;;77.13;50.30;;;;;;;;;;10107745;28;20563;-78
2024/03/22 05:20:28;;;;;;;77.68;50.90;;;;;;;;;;10106796;28;20049;-78
2024/03/22 05:25:22;;;;;;;69.30;48.38;;;;;;;;;;10106637;28;20067;-78
2024/03/22 05:30:14;;;;;;;69.05;45.17;;;;;;;;;;10108527;28;20064;-79
2024/03/22 05:35:08;;;;;;;77.63;48.92;;;;;;;;;;10108050;28;20124;-77
2024/03/22 05:40:01;;;;;;;81.75;53.55;;;;;;;;;;10107299;28;20501;-78
2024/03/22 05:44:54;;;;;;;81.00;52.80;;;;;;;;;;10118406;28;20048;-78
2024/03/22 05:49:47;;;;;;;91.97;59.65;;;;;;;;;;10132189;28;20040;-79
2024/03/22 05:54:39;;;;;;;91.20;60.10;;;;;;;;;;10129722;28;20738;-77
2024/03/22 05:59:32;;;;;;;82.32;53.90;;;;;;;;;;10130795;28;20048;-78
2024/03/22 06:04:25;;;;;;;76.32;49.90;;;;;;;;;;10129976;28;20051;-78
2024/03/22 06:09:23;;;;;;;80.03;53.78;;;;;;;;;;10128683;28;20164;-78
2024/03/22 06:14:15;;;;;;;80.40;51.07;;;;;;;;;;10128860;28;20098;-78
2024/03/22 06:19:08;;;;;;;71.07;48.83;;;;;;;;;;10131672;28;20128;-78
2024/03/22 06:24:00;;;;;;;80.18;52.00;;;;;;;;;;10129551;28;20055;-78
2024/03/22 06:28:52;;;;;;;78.50;51.67;;;;;;;;;;10128121;28;20183;-78
2024/03/22 06:33:46;;;;;;;94.68;59.88;;;;;;;;;;10122420;28;20068;-78
2024/03/22 06:38:39;;;;;;;88.38;58.70;;;;;;;;;;10131351;28;20127;-79
2024/03/22 06:43:31;;;;;;;82.85;51.20;;;;;;;;;;10126168;28;20048;-79
2024/03/22 06:48:23;;;;;;;73.22;50.80;;;;;;;;;;10127306;28;20094;-79
2024/03/22 06:53:16;;;;;;;81.60;52.55;;;;;;;;;;10121498;28;20048;-77
2024/03/22 06:58:08;;;;;;;77.72;53.20;;;;;;;;;;10118458;28;20044;-78
2024/03/22 07:03:04;;;;;;;77.38;52.22;;;;;;;;;;10127781;28;20036;-78
2024/03/22 07:07:57;;;;;;;72.30;46.47;;;;;;;;;;10128326;28;20131;-77
2024/03/22 07:12:49;;;;;;;72.95;49.60;;;;;;;;;;10128594;28;20115;-79
2024/03/22 07:17:42;;;;;;;69.82;47.58;;;;;;;;;;10128659;28;20056;-78
2024/03/22 07:22:35;;;;;;;73.53;50.60;;;;;;;;;;10129324;28;20055;-79
2024/03/22 07:27:29;;;;;;;68.32;43.65;;;;;;;;;;10127648;28;20420;-78
2024/03/22 07:32:22;;;;;;;61.58;44.08;;;;;;;;;;10127687;28;20048;-78
2024/03/22 07:37:14;;;;;;;58.90;41.35;;;;;;;;;;10124555;28;20045;-79
2024/03/22 07:42:07;;;;;;;61.05;41.38;;;;;;;;;;10127774;28;20488;-78
2024/03/22 07:46:59;;;;;;;64.13;42.65;;;;;;;;;;10127214;28;20087;-78
2024/03/22 07:51:53;;;;;;;55.50;40.45;;;;;;;;;;10127123;28;20056;-79
2024/03/22 07:56:45;;;;;;;62.25;42.53;;;;;;;;;;10126812;28;20051;-79
2024/03/22 08:01:37;;;;;;;52.38;39.30;;;;;;;;;;10121863;28;20054;-80
2024/03/22 08:06:29;;;;;;;58.92;43.47;;;;;;;;;;10119805;28;20059;-78
2024/03/22 08:11:21;;;;;;;56.85;40.10;;;;;;;;;;10121088;28;20507;-79
2024/03/22 08:16:13;;;;;;;54.85;37.65;;;;;;;;;;10133893;28;20052;-79
2024/03/22 08:21:05;;;;;;;51.60;37.55;;;;;;;;;;10115740;28;20052;-80
2024/03/22 08:25:57;;;;;;;51.50;37.78;;;;;;;;;;10125836;28;20052;-79
2024/03/22 08:30:50;;;;;;;53.85;40.17;;;;;;;;;;10128068;28;20044;-79
2024/03/22 08:35:42;;;;;;;51.15;38.72;;;;;;;;;;10124721;28;20046;-79
2024/03/22 08:40:39;;;;;;;50.28;40.22;;;;;;;;;;10130558;28;20044;-80
2024/03/22 08:45:32;;;;;;;52.78;38.55;;;;;;;;;;10137749;28;20047;-80
2024/03/22 08:50:25;;;;;;;52.38;40.20;;;;;;;;;;10134456;28;20045;-80
2024/03/22 08:55:17;;;;;;;51.33;38.15;;;;;;;;;;10128926;28;20045;-80
2024/03/22 09:00:12;;;;;;;42.15;33.08;;;;;;;;;;10130133;28;20109;-80
2024/03/22 09:05:08;;;;;;;48.45;35.63;;;;;;;;;;10135521;28;20496;-80
2024/03/22 09:10:00;;;;;;;47.85;37.58;;;;;;;;;;10132312;28;20055;-82
2024/03/22 09:14:52;;;;;;;49.58;36.33;;;;;;;;;;10130784;28;20431;-81
2024/03/22 09:19:44;;;;;;;46.70;36.85;;;;;;;;;;10124746;28;20680;-82
2024/03/22 09:24:37;;;;;;;50.13;39.20;;;;;;;;;;10125417;28;20102;-83
2024/03/22 09:29:29;;;;;;;54.25;38.75;;;;;;;;;;10128390;28;20048;-82
2024/03/22 09:34:22;;;;;;;48.58;37.42;;;;;;;;;;10135027;28;20119;-82
2024/03/22 09:39:14;;;;;;;47.05;35.55;;;;;;;;;;10131291;28;20173;-82
2024/03/22 09:44:07;;;;;;;52.35;39.17;;;;;;;;;;10130224;28;20119;-82
2024/03/22 09:48:58;;;;;;;43.63;34.35;;;;;;;;;;10126850;28;20093;-84
2024/03/22 09:53:52;;;;;;;44.97;36.80;;;;;;;;;;10133330;28;20064;-82
2024/03/22 09:58:45;;;;;;;40.90;34.03;;;;;;;;;;10103876;28;20183;-81
2024/03/22 10:03:36;;;;;;;42.47;36.33;;;;;;;;;;10127989;28;20048;-79
2024/03/22 10:08:32;;;;;;;41.75;32.35;;;;;;;;;;10128620;28;20055;-80
2024/03/22 10:13:24;;;;;;;47.78;37.80;;;;;;;;;;10127881;28;20122;-79
2024/03/22 10:18:16;;;;;;;40.67;33.15;;;;;;;;;;10129253;28;20040;-78
2024/03/22 10:23:09;;;;;;;41.30;32.65;;;;;;;;;;10124458;28;20049;-74
2024/03/22 10:28:01;;;;;;;42.92;33.75;;;;;;;;;;10126991;28;20123;-77
2024/03/22 10:32:54;;;;;;;38.53;31.70;;;;;;;;;;10126831;28;20064;-76
2024/03/22 10:37:49;;;;;;;41.85;31.50;;;;;;;;;;10126927;28;20041;-74
2024/03/22 10:42:43;;;;;;;36.03;31.40;;;;;;;;;;10126539;28;20048;-76
2024/03/22 10:47:39;;;;;;;38.20;29.10;;;;;;;;;;10127195;28;20139;-76
2024/03/22 10:52:49;;;;;;;35.95;29.45;;;;;;;;;;10129679;28;20080;-76
2024/03/22 10:57:42;;;;;;;32.78;27.55;;;;;;;;;;10109412;28;20119;-78
2024/03/22 11:02:34;;;;;;;39.88;28.33;;;;;;;;;;10110562;28;20408;-74
2024/03/22 11:07:30;;;;;;;34.22;26.50;;;;;;;;;;10126818;28;20045;-76
2024/03/22 11:12:25;;;;;;;34.93;28.53;;;;;;;;;;10127341;28;20055;-77
2024/03/22 11:17:17;;;;;;;28.15;24.60;;;;;;;;;;10101813;28;20060;-72
2024/03/22 11:22:11;;;;;;;32.88;26.80;;;;;;;;;;10122164;28;20104;-77
2024/03/22 11:27:04;;;;;;;27.70;24.75;;;;;;;;;;10125955;28;20041;-78
2024/03/22 11:31:56;;;;;;;28.48;25.15;;;;;;;;;;10125549;28;20039;-79
2024/03/22 11:36:50;;;;;;;24.23;21.20;;;;;;;;;;10125979;28;20044;-78
2024/03/22 11:41:48;;;;;;;20.35;16.60;;;;;;;;;;10124911;28;20535;-78
2024/03/22 11:46:43;;;;;;;15.55;11.45;;;;;;;;;;10124831;28;20098;-78
2024/03/22 11:51:35;;;;;;;18.35;16.38;;;;;;;;;;10133518;28;20501;-77
2024/03/22 11:56:27;;;;;;;11.30;9.68;;;;;;;;;;10133951;28;20052;-77
2024/03/22 12:01:20;;;;;;;9.75;8.75;;;;;;;;;;10116805;28;20048;-77
2024/03/22 12:06:12;;;;;;;11.10;8.98;;;;;;;;;;10120690;28;20516;-78
2024/03/22 12:11:05;;;;;;;11.77;10.25;;;;;;;;;;10131424;28;20049;-78
2024/03/22 12:15:57;;;;;;;17.05;10.20;;;;;;;;;;10132356;28;20488;-78
2024/03/22 12:20:50;;;;;;;12.73;10.80;;;;;;;;;;10131235;28;20051;-78
2024/03/22 12:25:42;;;;;;;13.80;9.18;;;;;;;;;;10131588;28;20033;-78
2024/03/22 12:30:34;;;;;;;14.48;11.50;;;;;;;;;;10133249;28;20040;-79
2024/03/22 12:35:27;;;;;;;11.27;7.80;;;;;;;;;;10132514;28;20408;-77
2024/03/22 12:40:20;;;;;;;17.48;9.90;;;;;;;;;;10130785;28;20036;-78
2024/03/22 12:45:13;;;;;;;13.07;9.38;;;;;;;;;;10129745;28;20048;-77
2024/03/22 12:50:07;;;;;;;8.73;7.32;;;;;;;;;;10129654;28;20159;-76
2024/03/22 12:55:00;;;;;;;10.70;8.43;;;;;;;;;;10127130;28;20037;-77
2024/03/22 12:59:56;;;;;;;14.98;7.35;;;;;;;;;;10132517;28;20053;-77
2024/03/22 13:04:50;;;;;;;6.78;5.90;;;;;;;;;;10127576;28;20052;-78
2024/03/22 13:09:43;;;;;;;7.80;4.75;;;;;;;;;;10133752;28;20094;-77
2024/03/22 13:14:35;;;;;;;14.35;8.20;;;;;;;;;;10134048;28;20044;-76
2024/03/22 13:19:27;;;;;;;10.32;5.78;;;;;;;;;;10135118;28;20069;-76
2024/03/22 13:24:19;;;;;;;8.40;6.55;;;;;;;;;;10134349;28;20040;-79
2024/03/22 13:29:13;;;;;;;15.32;7.97;;;;;;;;;;10126562;28;20056;-77
2024/03/22 13:34:05;;;;;;;11.43;8.63;;;;;;;;;;10129074;28;20066;-79
2024/03/22 13:38:58;;;;;;;10.10;8.40;;;;;;;;;;10129194;28;20116;-77
2024/03/22 13:43:50;;;;;;;8.80;7.30;;;;;;;;;;10128972;28;20061;-78
2024/03/22 13:48:43;;;;;;;20.50;7.68;;;;;;;;;;10120233;28;20406;-77
2024/03/22 13:53:36;;;;;;;9.43;7.50;;;;;;;;;;10129292;28;20048;-78
2024/03/22 13:58:29;;;;;;;9.30;7.03;;;;;;;;;;10127547;28;20385;-78
2024/03/22 14:03:21;;;;;;;17.98;6.57;;;;;;;;;;10128887;28;20060;-78
2024/03/22 14:08:14;;;;;;;10.40;7.00;;;;;;;;;;10129094;28;20124;-78
2024/03/22 14:13:07;;;;;;;6.40;5.72;;;;;;;;;;10127561;28;20053;-78
2024/03/22 14:18:00;;;;;;;6.30;5.28;;;;;;;;;;10136293;28;20074;-78
2024/03/22 14:22:52;;;;;;;5.13;4.60;;;;;;;;;;10128462;28;20416;-78
2024/03/22 14:27:45;;;;;;;6.57;5.68;;;;;;;;;;10126817;28;20058;-78
2024/03/22 14:32:38;;;;;;;9.95;4.97;;;;;;;;;;10134211;28;20121;-78
2024/03/22 14:37:31;;;;;;;7.88;5.10;;;;;;;;;;10127157;28;20409;-78
2024/03/22 14:42:23;;;;;;;19.27;5.82;;;;;;;;;;10127248;28;20051;-78
2024/03/22 14:47:15;;;;;;;8.93;5.43;;;;;;;;;;10127342;28;20519;-77
2024/03/22 14:52:07;;;;;;;6.55;5.15;;;;;;;;;;10124880;28;20492;-77
2024/03/22 14:56:59;;;;;;;7.78;4.60;;;;;;;;;;10122931;28;20063;-77
2024/03/22 15:01:54;;;;;;;7.25;4.22;;;;;;;;;;10122551;28;20048;-77
2024/03/22 15:06:50;;;;;;;12.60;5.43;;;;;;;;;;10125401;28;20049;-77
2024/03/22 15:11:43;;;;;;;6.50;5.45;;;;;;;;;;10131062;28;20500;-78
2024/03/22 15:16:36;;;;;;;9.40;5.55;;;;;;;;;;10135580;28;20139;-78
2024/03/22 15:21:28;;;;;;;7.75;5.70;;;;;;;;;;10128455;28;20106;-79
2024/03/22 15:26:21;;;;;;;8.60;5.78;;;;;;;;;;10128853;28;20056;-78
2024/03/22 15:31:13;;;;;;;6.72;4.85;;;;;;;;;;10134139;28;20049;-78
2024/03/22 15:36:06;;;;;;;6.15;4.60;;;;;;;;;;10128007;28;20512;-77
2024/03/22 15:41:00;;;;;;;7.47;4.90;;;;;;;;;;10130627;28;20043;-78
2024/03/22 15:45:51;;;;;;;10.77;6.30;;;;;;;;;;10125498;28;20401;-79
2024/03/22 15:50:44;;;;;;;6.97;5.65;;;;;;;;;;10125648;28;20045;-78
2024/03/22 15:55:36;;;;;;;9.48;6.63;;;;;;;;;;10128185;28;20132;-79
2024/03/22 16:00:29;;;;;;;10.55;8.40;;;;;;;;;;10125731;28;20051;-78
2024/03/22 16:05:21;;;;;;;17.40;8.32;;;;;;;;;;10120491;28;20047;-79
2024/03/22 16:10:14;;;;;;;11.77;8.20;;;;;;;;;;10125226;28;20048;-78
2024/03/22 16:15:06;;;;;;;9.95;8.05;;;;;;;;;;10129073;28;20044;-78
2024/03/22 16:19:58;;;;;;;14.23;10.15;;;;;;;;;;10126338;28;20049;-77
2024/03/22 16:24:51;;;;;;;18.75;9.55;;;;;;;;;;10125090;28;20048;-78
2024/03/22 16:29:44;;;;;;;15.93;9.20;;;;;;;;;;10124889;28;20036;-77
2024/03/22 16:34:37;;;;;;;15.55;8.27;;;;;;;;;;10136572;28;20048;-76
2024/03/22 16:39:29;;;;;;;14.20;9.25;;;;;;;;;;10132308;28;20059;-77
2024/03/22 16:44:21;;;;;;;12.65;9.32;;;;;;;;;;10133620;28;20385;-76
2024/03/22 16:49:13;;;;;;;14.70;9.63;;;;;;;;;;10128721;28;20102;-76
2024/03/22 16:54:09;;;;;;;17.48;9.27;;;;;;;;;;10127943;28;20041;-77
2024/03/22 16:59:01;;;;;;;13.35;7.90;;;;;;;;;;10130304;28;20086;-77
2024/03/22 17:03:54;;;;;;;13.52;9.73;;;;;;;;;;10130624;28;20054;-77
2024/03/22 17:08:47;;;;;;;16.75;10.75;;;;;;;;;;10131546;28;20553;-77
2024/03/22 17:13:39;;;;;;;19.30;10.52;;;;;;;;;;10131887;28;20037;-75
2024/03/22 17:18:32;;;;;;;18.67;11.77;;;;;;;;;;10130516;28;20515;-76
2024/03/22 17:30:17;;;;;;;16.58;10.18;;;;;;;;;;10146284;28;20090;-77
2024/03/22 18:55:54;;;;;;;87.03;50.65;;;;;;;;;;10113229;28;20056;-75
2024/03/22 19:00:48;;;;;;;23.35;17.30;;;;;;;;;;10121092;28;20078;-76
2024/03/22 19:05:41;;;;;;;13.68;8.75;;;;;;;;;;10125570;28;20048;-76
2024/03/22 19:10:34;;;;;;;11.93;9.63;;;;;;;;;;10119272;28;20053;-76
2024/03/22 19:15:27;;;;;;;9.88;8.23;;;;;;;;;;10123554;28;20056;-76
2024/03/22 19:20:20;;;;;;;13.70;10.48;;;;;;;;;;10109921;28;20114;-76
2024/03/22 19:25:14;;;;;;;11.13;8.35;;;;;;;;;;10122247;28;20080;-76
2024/03/22 19:30:11;;;;;;;10.43;9.05;;;;;;;;;;10112898;28;20052;-76
2024/03/22 19:35:06;;;;;;;13.40;9.75;;;;;;;;;;10123888;28;20049;-73
2024/03/22 19:39:59;;;;;;;11.75;8.93;;;;;;;;;;10118689;28;20044;-77
2024/03/22 19:44:51;;;;;;;15.52;10.35;;;;;;;;;;10118902;28;20095;-75
2024/03/22 19:49:44;;;;;;;14.15;10.88;;;;;;;;;;10116737;28;20048;-75
2024/03/22 19:54:37;;;;;;;29.13;21.30;;;;;;;;;;10118614;28;20056;-76
2024/03/22 19:59:29;;;;;;;15.43;8.82;;;;;;;;;;10118577;28;20132;-75
2024/03/22 20:04:22;;;;;;;22.58;15.60;;;;;;;;;;10118554;28;20051;-76
2024/03/22 20:09:15;;;;;;;13.88;11.40;;;;;;;;;;10124139;28;20412;-76
2024/03/22 20:14:07;;;;;;;14.27;10.38;;;;;;;;;;10122394;28;20052;-76
2024/03/22 20:18:59;;;;;;;14.00;9.32;;;;;;;;;;10128562;28;20049;-76
2024/03/22 20:23:52;;;;;;;15.23;9.25;;;;;;;;;;10128749;28;20052;-76
2024/03/22 20:28:44;;;;;;;11.95;8.68;;;;;;;;;;10128281;28;20052;-76
2024/03/22 20:33:37;;;;;;;10.25;8.30;;;;;;;;;;10128500;28;20056;-76
2024/03/22 20:38:29;;;;;;;10.25;8.95;;;;;;;;;;10136786;28;20048;-76
2024/03/22 20:43:22;;;;;;;11.27;9.02;;;;;;;;;;10127663;28;20511;-76
2024/03/22 20:48:15;;;;;;;10.95;8.95;;;;;;;;;;10147745;28;20060;-76
2024/03/22 20:53:07;;;;;;;15.77;9.32;;;;;;;;;;10168871;28;20084;-76
2024/03/22 20:58:00;;;;;;;11.57;9.48;;;;;;;;;;10170045;28;20055;-75
2024/03/22 21:02:52;;;;;;;16.02;9.35;;;;;;;;;;10166613;28;20048;-77
2024/03/22 21:07:45;;;;;;;10.65;7.90;;;;;;;;;;10183636;28;20044;-77
2024/03/22 21:12:37;;;;;;;8.93;7.78;;;;;;;;;;10138122;28;20064;-76
2024/03/22 21:17:30;;;;;;;10.82;7.45;;;;;;;;;;10141139;28;20079;-76
2024/03/22 21:22:21;;;;;;;10.45;7.88;;;;;;;;;;10150508;28;20400;-77
2024/03/22 21:27:14;;;;;;;9.45;8.55;;;;;;;;;;10125925;28;20052;-76
2024/03/22 21:32:06;;;;;;;7.95;6.03;;;;;;;;;;10128014;28;20056;-76
2024/03/22 21:36:58;;;;;;;9.13;6.53;;;;;;;;;;10123645;28;20052;-76
2024/03/22 21:41:50;;;;;;;7.65;5.80;;;;;;;;;;10119254;28;20492;-76
2024/03/22 21:46:43;;;;;;;10.00;6.10;;;;;;;;;;10122088;28;20048;-75
2024/03/22 21:51:35;;;;;;;7.85;5.60;;;;;;;;;;10130741;28;20061;-75
2024/03/22 21:56:26;;;;;;;12.60;6.50;;;;;;;;;;10084938;28;20529;-76
2024/03/22 22:01:18;;;;;;;9.88;6.40;;;;;;;;;;10087561;28;20053;-77
2024/03/22 22:06:11;;;;;;;7.22;6.50;;;;;;;;;;10072187;28;20057;-76
2024/03/22 22:11:03;;;;;;;9.45;6.93;;;;;;;;;;10080495;28;20104;-78
2024/03/22 22:15:55;;;;;;;7.60;6.47;;;;;;;;;;10077337;28;20140;-78
2024/03/22 22:20:48;;;;;;;8.10;6.30;;;;;;;;;;10084439;28;20065;-77
2024/03/22 22:25:41;;;;;;;8.45;6.20;;;;;;;;;;10089424;28;20069;-78
2024/03/22 22:30:33;;;;;;;6.13;5.45;;;;;;;;;;10063572;28;20076;-77
2024/03/22 22:35:26;;;;;;;8.93;6.13;;;;;;;;;;10076650;28;20056;-78
2024/03/22 22:40:18;;;;;;;72.38;31.55;;;;;;;;;;10086290;28;20056;-76
2024/03/22 22:45:12;;;;;;;25.40;15.95;;;;;;;;;;10079447;28;20073;-77
2024/03/22 22:50:05;;;;;;;12.05;9.32;;;;;;;;;;10083986;28;20076;-76
2024/03/22 22:54:57;;;;;;;8.77;6.43;;;;;;;;;;10097562;28;20103;-77
2024/03/22 22:59:48;;;;;;;7.43;5.70;;;;;;;;;;10101757;28;20052;-75
2024/03/22 23:04:41;;;;;;;7.20;5.50;;;;;;;;;;10084640;28;20067;-75
2024/03/22 23:09:33;;;;;;;8.45;5.93;;;;;;;;;;10092588;28;20088;-75
2024/03/22 23:14:26;;;;;;;11.50;5.35;;;;;;;;;;10111143;28;20065;-75
2024/03/22 23:19:17;;;;;;;6.93;5.45;;;;;;;;;;10116588;28;20052;-75
2024/03/22 23:24:09;;;;;;;7.30;5.63;;;;;;;;;;10116741;28;20067;-76
2024/03/22 23:29:01;;;;;;;6.35;5.20;;;;;;;;;;10127336;28;20052;-77
2024/03/22 23:33:54;;;;;;;6.82;5.60;;;;;;;;;;10127340;28;20127;-76
2024/03/22 23:38:46;;;;;;;10.60;6.38;;;;;;;;;;10127308;28;20052;-76
2024/03/22 23:43:39;;;;;;;9.63;7.40;;;;;;;;;;10125045;28;20056;-76
2024/03/22 23:48:32;;;;;;;7.85;6.40;;;;;;;;;;10129105;28;20508;-77
2024/03/22 23:53:24;;;;;;;8.18;6.03;;;;;;;;;;10128592;28;20052;-77
2024/03/22 23:58:16;;;;;;;7.07;5.35;;;;;;;;;;10104796;28;20099;-75
